LFKJLFKC

Guest
Details From LFKJ - Napoleon Bonaparte
To LFKC - St Catherine
Flight Number -
Tags generated
Created
Modified
Stats Distance 37 nm / 68 km
Max Altitude 7,800 ft / 2,377 m
Waypoints 3
Social Downloads 10
Likes 0
Share VATSIM

Download

Looking for another format? Having issues loading an existing format? Contact us
Advertisement - Login to hide

Notes

Basic altitude profile: - Ascent Rate: 2000ft/min - Ascent Speed: 150kts - Cruise Altitude: 10000ft - Cruise Speed: 200kts - Descent Rate: 2000ft/min - Descent Speed: 200kts

Route

LFKJ VICCO LFKC

ID Type Via Altitude Latitude Longitude Leg Dist Tot Dist Heading (true) Name
O LFKJ APT - 0 ft / 0 m 41.92289˚ 8.79959˚ - 0 nm - Napoleon Bonaparte
VICCO FIX - 7,800 ft / 2,377 m 42.13944˚ 8.81583˚ 13 nm 13 nm 3° / 3° -
O LFKC APT - 0 ft / 0 m 42.53076˚ 8.79293˚ 23 nm 36 nm 358° / 358° St Catherine

Altitude Profile

Advertisement - Login to hide

LFKJ

Details ICAO LFKJ (AJA)
Name Napoleon Bonaparte
Region France
Timezone Europe/Paris (UTC+1.0)
Stats Elevation 18 ft / 5 m (AMSL)
Location 41.922886° 8.799587°
Runways 2
Magnetic Variation 2.328° E

METAR

LFKJ 110730Z 18018KT 9999 -RA FEW020 BKN026 16/12 Q1001 NOSIG

Decode

TAF

TAF LFKJ 110200Z 1103/1203 19015G25KT 9000 BKN018 BKN030 TEMPO 1103/1108 4000 RA BR BKN010 BKN020 BKN040 BECMG 1120/1122 RA

Decode

Departure Runways

ID Width Length Bearing (true) Bearing (mag) Surface Threshold Offset Overrun Length
02 180 ft / 55 m 7,899 ft / 2,408 m 24.94° 22.61° Asphalt 0 ft / 0 m 164 ft / 50 m
10 98 ft / 30 m 3,447 ft / 1,051 m 94.35° 92.02° Concrete 0 ft / 0 m 164 ft / 50 m
20 180 ft / 55 m 7,899 ft / 2,408 m 204.95° 202.62° Asphalt 745 ft / 227 m 230 ft / 70 m
28 98 ft / 30 m 3,447 ft / 1,051 m 274.36° 272.03° Concrete 213 ft / 65 m 0 ft / 0 m

LFKC

Details ICAO LFKC (CLY)
Name St Catherine
Region France
Timezone Europe/Paris (UTC+1.0)
Stats Elevation 208 ft / 63 m (AMSL)
Location 42.530762° 8.792925°
Runways 1
Magnetic Variation 2.341° E

METAR

LFKC 110730Z AUTO 20021G40KT 170V230 9999 -RADZ SCT036/// BKN043/// BKN050/// 16/11 Q0997 NOSIG

Decode

TAF

TAF LFKC 110200Z 1103/1203 20020G35KT 9999 FEW040 BKN050 BKN060 TEMPO 1103/1108 RA PROB40 TEMPO 1103/1107 20025G45KT BECMG 1117/1119 22025G45KT BECMG 1120/1122 RA BECMG 1200/1202 22020G30KT TX17/1112Z TN09/1203Z

Decode

Destination Runways

ID Width Length Bearing (true) Bearing (mag) Surface Threshold Offset Overrun Length
18 131 ft / 40 m 7,596 ft / 2,315 m 179.60° 177.26° Concrete 0 ft / 0 m 0 ft / 0 m
36 131 ft / 40 m 7,596 ft / 2,315 m 359.60° 357.26° Concrete 656 ft / 200 m 0 ft / 0 m

Approach Navaids

Runway Type Ident Frequency Range Bearing (true) Bearing (mag) Slope Elevation
18 Localiser CLI 109.50 MHz 18 nm / 33 km 179.62° 177.28° - 230 ft / 70 m (AMSL)
18 DME CLI 109.50 MHz 18 nm / 33 km - - - 230 ft / 70 m (AMSL)

Popular Alternatives